sensor_id;sensor_type;location;lat;lon;timestamp;pressure;altitude;pressure_sealevel;temperature;humidity
82872;BME280;72646;43.596;1.428;2024-03-02T00:02:13;98798.38;;;17.34;42.06
82872;BME280;72646;43.596;1.428;2024-03-02T00:04:39;98784.88;;;17.33;41.97
82872;BME280;72646;43.596;1.428;2024-03-02T00:07:06;98785.66;;;17.33;42.18
82872;BME280;72646;43.596;1.428;2024-03-02T00:09:32;98792.03;;;17.34;42.43
82872;BME280;72646;43.596;1.428;2024-03-02T00:11:59;98787.88;;;17.31;42.35
82872;BME280;72646;43.596;1.428;2024-03-02T00:14:25;98782.63;;;17.30;42.37
82872;BME280;72646;43.596;1.428;2024-03-02T00:16:51;98796.72;;;17.33;42.01
82872;BME280;72646;43.596;1.428;2024-03-02T00:19:17;98772.94;;;17.22;41.94
82872;BME280;72646;43.596;1.428;2024-03-02T00:21:42;98800.03;;;17.35;42.50
82872;BME280;72646;43.596;1.428;2024-03-02T00:24:21;98790.38;;;17.33;41.95
82872;BME280;72646;43.596;1.428;2024-03-02T00:26:50;98797.28;;;17.35;42.02
82872;BME280;72646;43.596;1.428;2024-03-02T00:29:16;98797.56;;;17.34;42.24
82872;BME280;72646;43.596;1.428;2024-03-02T00:31:43;98806.66;;;17.34;42.29
82872;BME280;72646;43.596;1.428;2024-03-02T00:34:12;98792.88;;;17.34;42.02
82872;BME280;72646;43.596;1.428;2024-03-02T00:36:41;98792.03;;;17.34;42.45
82872;BME280;72646;43.596;1.428;2024-03-02T00:39:07;98787.34;;;17.34;42.53
82872;BME280;72646;43.596;1.428;2024-03-02T00:41:33;98793.13;;;17.33;42.15
82872;BME280;72646;43.596;1.428;2024-03-02T00:44:05;98789.00;;;17.35;42.23
82872;BME280;72646;43.596;1.428;2024-03-02T00:46:42;98789.84;;;17.36;42.09
82872;BME280;72646;43.596;1.428;2024-03-02T00:49:22;98789.84;;;17.36;42.19
82872;BME280;72646;43.596;1.428;2024-03-02T00:51:49;98788.16;;;17.35;42.32
82872;BME280;72646;43.596;1.428;2024-03-02T00:54:15;98797.03;;;17.37;41.81
82872;BME280;72646;43.596;1.428;2024-03-02T00:56:44;98788.16;;;17.35;42.00
82872;BME280;72646;43.596;1.428;2024-03-02T00:59:10;98783.50;;;17.35;42.07
82872;BME280;72646;43.596;1.428;2024-03-02T01:01:36;98785.72;;;17.38;41.98
82872;BME280;72646;43.596;1.428;2024-03-02T01:04:01;98759.72;;;17.29;42.25
82872;BME280;72646;43.596;1.428;2024-03-02T01:06:26;98763.59;;;17.33;41.96
82872;BME280;72646;43.596;1.428;2024-03-02T01:08:52;98774.94;;;17.37;42.22
82872;BME280;72646;43.596;1.428;2024-03-02T01:11:18;98775.22;;;17.35;42.23
82872;BME280;72646;43.596;1.428;2024-03-02T01:13:46;98760.03;;;17.33;42.35
82872;BME280;72646;43.596;1.428;2024-03-02T01:16:12;98766.38;;;17.33;42.27
82872;BME280;72646;43.596;1.428;2024-03-02T01:18:37;98763.34;;;17.35;42.02
82872;BME280;72646;43.596;1.428;2024-03-02T01:21:03;98766.94;;;17.35;42.02
82872;BME280;72646;43.596;1.428;2024-03-02T01:23:28;98755.91;;;17.35;42.15
82872;BME280;72646;43.596;1.428;2024-03-02T01:25:54;98752.03;;;17.36;42.32
82872;BME280;72646;43.596;1.428;2024-03-02T01:28:20;98753.97;;;17.36;42.32
82872;BME280;72646;43.596;1.428;2024-03-02T01:30:46;98742.09;;;17.35;41.96
82872;BME280;72646;43.596;1.428;2024-03-02T01:33:11;98741.28;;;17.35;42.21
82872;BME280;72646;43.596;1.428;2024-03-02T01:35:37;98720.31;;;17.29;42.15
82872;BME280;72646;43.596;1.428;2024-03-02T01:38:03;98732.72;;;17.36;42.34
82872;BME280;72646;43.596;1.428;2024-03-02T01:40:29;98729.97;;;17.36;42.24
82872;BME280;72646;43.596;1.428;2024-03-02T01:42:54;98722.22;;;17.33;41.90
82872;BME280;72646;43.596;1.428;2024-03-02T01:45:21;98721.16;;;17.34;42.26
82872;BME280;72646;43.596;1.428;2024-03-02T01:47:47;98721.16;;;17.34;41.91
82872;BME280;72646;43.596;1.428;2024-03-02T01:50:12;98715.38;;;17.36;42.25
82872;BME280;72646;43.596;1.428;2024-03-02T01:52:38;98720.03;;;17.35;42.19
82872;BME280;72646;43.596;1.428;2024-03-02T01:55:04;98719.78;;;17.37;41.61
82872;BME280;72646;43.596;1.428;2024-03-02T01:57:31;98703.75;;;17.29;42.22
82872;BME280;72646;43.596;1.428;2024-03-02T01:59:57;98715.91;;;17.33;42.01
82872;BME280;72646;43.596;1.428;2024-03-02T02:02:22;98717.84;;;17.38;41.92
82872;BME280;72646;43.596;1.428;2024-03-02T02:04:48;98724.44;;;17.36;42.28
82872;BME280;72646;43.596;1.428;2024-03-02T02:07:13;98712.03;;;17.34;42.16
82872;BME280;72646;43.596;1.428;2024-03-02T02:09:42;98703.47;;;17.30;41.96
82872;BME280;72646;43.596;1.428;2024-03-02T02:12:11;98696.28;;;17.29;42.25
82872;BME280;72646;43.596;1.428;2024-03-02T02:14:36;98698.81;;;17.36;42.46
82872;BME280;72646;43.596;1.428;2024-03-02T02:17:02;98694.38;;;17.35;42.02
82872;BME280;72646;43.596;1.428;2024-03-02T02:19:28;98692.44;;;17.35;41.96
82872;BME280;72646;43.596;1.428;2024-03-02T02:21:54;98690.81;;;17.34;41.89
82872;BME280;72646;43.596;1.428;2024-03-02T02:24:19;98686.09;;;17.35;42.23
82872;BME280;72646;43.596;1.428;2024-03-02T02:26:44;98686.09;;;17.35;42.19
82872;BME280;72646;43.596;1.428;2024-03-02T02:29:10;98672.00;;;17.26;42.17
82872;BME280;72646;43.596;1.428;2024-03-02T02:31:39;98681.41;;;17.35;42.30
82872;BME280;72646;43.596;1.428;2024-03-02T02:34:05;98675.06;;;17.35;42.17
82872;BME280;72646;43.596;1.428;2024-03-02T02:36:31;98663.22;;;17.34;42.48
82872;BME280;72646;43.596;1.428;2024-03-02T02:38:57;98652.72;;;17.31;42.56
82872;BME280;72646;43.596;1.428;2024-03-02T02:41:25;98641.66;;;17.26;42.37
82872;BME280;72646;43.596;1.428;2024-03-02T02:43:50;98651.06;;;17.35;42.10
82872;BME280;72646;43.596;1.428;2024-03-02T02:46:16;98638.94;;;17.36;42.09
82872;BME280;72646;43.596;1.428;2024-03-02T02:48:41;98634.53;;;17.35;42.43
82872;BME280;72646;43.596;1.428;2024-03-02T02:51:06;98623.22;;;17.32;42.28
82872;BME280;72646;43.596;1.428;2024-03-02T02:53:32;98634.78;;;17.34;42.14
82872;BME280;72646;43.596;1.428;2024-03-02T02:55:57;98619.63;;;17.36;42.04
82872;BME280;72646;43.596;1.428;2024-03-02T02:58:22;98609.69;;;17.35;42.44
82872;BME280;72646;43.596;1.428;2024-03-02T03:00:48;98596.44;;;17.32;42.90
82872;BME280;72646;43.596;1.428;2024-03-02T03:03:13;98599.78;;;17.34;42.25
82872;BME280;72646;43.596;1.428;2024-03-02T03:05:39;98605.28;;;17.34;41.97
82872;BME280;72646;43.596;1.428;2024-03-02T03:08:04;98595.91;;;17.35;42.20
82872;BME280;72646;43.596;1.428;2024-03-02T03:10:29;98593.97;;;17.36;42.01
82872;BME280;72646;43.596;1.428;2024-03-02T03:12:55;98569.41;;;17.24;41.91
82872;BME280;72646;43.596;1.428;2024-03-02T03:15:21;98584.59;;;17.37;42.39
82872;BME280;72646;43.596;1.428;2024-03-02T03:17:47;98574.09;;;17.34;42.41
82872;BME280;72646;43.596;1.428;2024-03-02T03:20:12;98577.16;;;17.38;42.35
82872;BME280;72646;43.596;1.428;2024-03-02T03:22:38;98578.25;;;17.36;42.28
82872;BME280;72646;43.596;1.428;2024-03-02T03:25:04;98572.72;;;17.36;42.50
82872;BME280;72646;43.596;1.428;2024-03-02T03:27:30;98552.31;;;17.32;42.42
82872;BME280;72646;43.596;1.428;2024-03-02T03:29:56;98540.75;;;17.30;42.46
82872;BME280;72646;43.596;1.428;2024-03-02T03:32:21;98540.72;;;17.35;42.60
82872;BME280;72646;43.596;1.428;2024-03-02T03:34:47;98529.69;;;17.35;42.30
82872;BME280;72646;43.596;1.428;2024-03-02T03:37:13;98533.56;;;17.34;42.17
82872;BME280;72646;43.596;1.428;2024-03-02T03:39:39;98537.13;;;17.35;42.07
82872;BME280;72646;43.596;1.428;2024-03-02T03:42:04;98532.72;;;17.34;42.24
82872;BME280;72646;43.596;1.428;2024-03-02T03:44:30;98526.09;;;17.35;42.55
82872;BME280;72646;43.596;1.428;2024-03-02T03:46:55;98525.00;;;17.31;42.85
82872;BME280;72646;43.596;1.428;2024-03-02T03:49:20;98530.25;;;17.32;42.18
82872;BME280;72646;43.596;1.428;2024-03-02T03:51:46;98517.84;;;17.30;42.36
82872;BME280;72646;43.596;1.428;2024-03-02T03:54:11;98518.09;;;17.33;42.33
82872;BME280;72646;43.596;1.428;2024-03-02T03:56:37;98515.06;;;17.30;42.12
82872;BME280;72646;43.596;1.428;2024-03-02T03:59:03;98506.25;;;17.33;42.32
82872;BME280;72646;43.596;1.428;2024-03-02T04:01:30;98508.19;;;17.32;42.30
82872;BME280;72646;43.596;1.428;2024-03-02T04:03:55;98510.41;;;17.30;42.29
82872;BME280;72646;43.596;1.428;2024-03-02T04:06:20;98506.25;;;17.33;42.20
82872;BME280;72646;43.596;1.428;2024-03-02T04:08:46;98494.94;;;17.29;42.08
82872;BME280;72646;43.596;1.428;2024-03-02T04:11:11;98501.28;;;17.30;42.26
82872;BME280;72646;43.596;1.428;2024-03-02T04:13:37;98491.09;;;17.30;42.64
82872;BME280;72646;43.596;1.428;2024-03-02T04:16:02;98487.22;;;17.31;42.26
82872;BME280;72646;43.596;1.428;2024-03-02T04:18:29;98491.91;;;17.31;42.21
82872;BME280;72646;43.596;1.428;2024-03-02T04:20:54;98474.53;;;17.25;42.51
82872;BME280;72646;43.596;1.428;2024-03-02T04:23:19;98484.47;;;17.31;42.27
82872;BME280;72646;43.596;1.428;2024-03-02T04:25:45;98489.69;;;17.28;42.18
82872;BME280;72646;43.596;1.428;2024-03-02T04:28:10;98484.47;;;17.31;42.58
82872;BME280;72646;43.596;1.428;2024-03-02T04:30:37;98474.53;;;17.30;42.49
82872;BME280;72646;43.596;1.428;2024-03-02T04:33:03;98469.56;;;17.27;42.59
82872;BME280;72646;43.596;1.428;2024-03-02T04:35:29;98472.88;;;17.29;42.25
82872;BME280;72646;43.596;1.428;2024-03-02T04:37:54;98465.44;;;17.30;42.20
82872;BME280;72646;43.596;1.428;2024-03-02T04:40:19;98466.25;;;17.30;42.68
82872;BME280;72646;43.596;1.428;2024-03-02T04:42:45;98472.31;;;17.27;42.56
82872;BME280;72646;43.596;1.428;2024-03-02T04:45:10;98469.03;;;17.30;42.30
82872;BME280;72646;43.596;1.428;2024-03-02T04:47:35;98462.09;;;17.28;42.51
82872;BME280;72646;43.596;1.428;2024-03-02T04:50:01;98457.72;;;17.32;42.19
82872;BME280;72646;43.596;1.428;2024-03-02T04:52:26;98452.19;;;17.27;42.40
82872;BME280;72646;43.596;1.428;2024-03-02T04:54:52;98454.66;;;17.28;42.55
82872;BME280;72646;43.596;1.428;2024-03-02T04:57:44;98456.03;;;17.31;42.12
82872;BME280;72646;43.596;1.428;2024-03-02T05:00:11;98452.47;;;17.25;42.44
82872;BME280;72646;43.596;1.428;2024-03-02T05:02:37;98452.47;;;17.30;42.25
82872;BME280;72646;43.596;1.428;2024-03-02T05:05:03;98448.88;;;17.30;42.32
82872;BME280;72646;43.596;1.428;2024-03-02T05:07:29;98443.63;;;17.28;42.22
82872;BME280;72646;43.596;1.428;2024-03-02T05:09:54;98438.97;;;17.29;42.49
82872;BME280;72646;43.596;1.428;2024-03-02T05:12:19;98433.72;;;17.27;42.13
82872;BME280;72646;43.596;1.428;2024-03-02T05:15:20;98430.69;;;17.29;42.49
82872;BME280;72646;43.596;1.428;2024-03-02T05:17:46;98427.38;;;17.27;42.20
82872;BME280;72646;43.596;1.428;2024-03-02T05:20:12;98417.16;;;17.27;42.13
82872;BME280;72646;43.596;1.428;2024-03-02T05:22:37;98415.22;;;17.28;42.43
82872;BME280;72646;43.596;1.428;2024-03-02T05:25:04;98412.19;;;17.24;42.64
82872;BME280;72646;43.596;1.428;2024-03-02T05:27:30;98397.31;;;17.20;42.52
82872;BME280;72646;43.596;1.428;2024-03-02T05:29:56;98407.22;;;17.26;42.40
82872;BME280;72646;43.596;1.428;2024-03-02T05:32:21;98395.91;;;17.28;42.52
82872;BME280;72646;43.596;1.428;2024-03-02T05:34:47;98397.28;;;17.25;42.07
82872;BME280;72646;43.596;1.428;2024-03-02T05:37:12;98388.75;;;17.27;42.38
82872;BME280;72646;43.596;1.428;2024-03-02T05:39:38;98365.88;;;17.11;42.37
82872;BME280;72646;43.596;1.428;2024-03-02T05:42:04;98388.19;;;17.25;42.36
82872;BME280;72646;43.596;1.428;2024-03-02T05:44:29;98382.66;;;17.25;42.26
82872;BME280;72646;43.596;1.428;2024-03-02T05:46:55;98387.38;;;17.24;42.43
82872;BME280;72646;43.596;1.428;2024-03-02T05:49:21;98385.69;;;17.23;42.70
82872;BME280;72646;43.596;1.428;2024-03-02T05:51:46;98384.63;;;17.24;42.45
82872;BME280;72646;43.596;1.428;2024-03-02T05:54:12;98379.09;;;17.24;42.59
82872;BME280;72646;43.596;1.428;2024-03-02T05:56:37;98371.91;;;17.23;42.48
82872;BME280;72646;43.596;1.428;2024-03-02T05:59:03;98369.16;;;17.23;42.37
82872;BME280;72646;43.596;1.428;2024-03-02T06:01:46;98361.47;;;17.20;42.25
82872;BME280;72646;43.596;1.428;2024-03-02T06:04:13;98352.06;;;17.21;42.32
82872;BME280;72646;43.596;1.428;2024-03-02T06:06:39;98355.94;;;17.20;42.23
82872;BME280;72646;43.596;1.428;2024-03-02T06:09:05;98347.13;;;17.18;42.24
82872;BME280;72646;43.596;1.428;2024-03-02T06:11:36;98338.56;;;17.20;42.38
82872;BME280;72646;43.596;1.428;2024-03-02T06:14:02;98339.69;;;17.19;42.28
82872;BME280;72646;43.596;1.428;2024-03-02T06:16:28;98324.50;;;17.16;42.42
82872;BME280;72646;43.596;1.428;2024-03-02T06:18:55;98325.34;;;17.22;42.71
82872;BME280;72646;43.596;1.428;2024-03-02T06:21:20;98330.00;;;17.21;42.49
82872;BME280;72646;43.596;1.428;2024-03-02T06:23:46;98319.81;;;17.22;42.21
82872;BME280;72646;43.596;1.428;2024-03-02T06:26:11;98304.38;;;17.16;42.25
82872;BME280;72646;43.596;1.428;2024-03-02T06:28:37;98323.09;;;17.24;42.41
82872;BME280;72646;43.596;1.428;2024-03-02T06:31:03;98305.72;;;17.23;42.20
82872;BME280;72646;43.596;1.428;2024-03-02T06:33:29;98283.13;;;17.16;42.13
82872;BME280;72646;43.596;1.428;2024-03-02T06:35:54;98289.75;;;17.20;42.11
82872;BME280;72646;43.596;1.428;2024-03-02T06:38:19;98271.03;;;17.07;42.18
82872;BME280;72646;43.596;1.428;2024-03-02T06:40:45;98286.44;;;17.18;42.41
82872;BME280;72646;43.596;1.428;2024-03-02T06:43:11;98290.56;;;17.21;42.06
82872;BME280;72646;43.596;1.428;2024-03-02T06:45:36;98281.47;;;17.15;42.73
82872;BME280;72646;43.596;1.428;2024-03-02T06:48:02;98286.72;;;17.22;42.13
82872;BME280;72646;43.596;1.428;2024-03-02T06:50:27;98283.66;;;17.23;42.10
82872;BME280;72646;43.596;1.428;2024-03-02T06:52:53;98264.66;;;17.22;41.89
82872;BME280;72646;43.596;1.428;2024-03-02T06:55:18;98256.09;;;17.13;42.41
82872;BME280;72646;43.596;1.428;2024-03-02T06:57:44;98265.50;;;17.17;42.18
82872;BME280;72646;43.596;1.428;2024-03-02T07:00:10;98264.38;;;17.18;42.61
82872;BME280;72646;43.596;1.428;2024-03-02T07:02:35;98267.97;;;17.19;42.08
82872;BME280;72646;43.596;1.428;2024-03-02T07:05:02;98268.50;;;17.21;42.10
82872;BME280;72646;43.596;1.428;2024-03-02T07:07:27;98267.97;;;17.19;42.17
82872;BME280;72646;43.596;1.428;2024-03-02T07:09:53;98273.22;;;17.20;41.86
82872;BME280;72646;43.596;1.428;2024-03-02T07:12:18;98277.34;;;17.23;42.05
82872;BME280;72646;43.596;1.428;2024-03-02T07:14:43;98265.47;;;17.22;41.99
82872;BME280;72646;43.596;1.428;2024-03-02T07:17:28;98256.09;;;17.23;42.08
82872;BME280;72646;43.596;1.428;2024-03-02T07:19:53;98250.31;;;17.20;41.96
82872;BME280;72646;43.596;1.428;2024-03-02T07:22:19;98259.69;;;17.24;42.43
82872;BME280;72646;43.596;1.428;2024-03-02T07:24:44;98262.44;;;17.24;42.09
82872;BME280;72646;43.596;1.428;2024-03-02T07:27:11;98255.81;;;17.25;41.90
82872;BME280;72646;43.596;1.428;2024-03-02T07:29:37;98261.03;;;17.26;42.21
82872;BME280;72646;43.596;1.428;2024-03-02T07:32:02;98237.09;;;17.22;42.18
82872;BME280;72646;43.596;1.428;2024-03-02T07:34:28;98234.59;;;17.20;42.01
82872;BME280;72646;43.596;1.428;2024-03-02T07:36:53;98223.31;;;17.12;42.43
82872;BME280;72646;43.596;1.428;2024-03-02T07:39:19;98224.13;;;17.17;42.21
82872;BME280;72646;43.596;1.428;2024-03-02T07:41:45;98219.44;;;17.18;41.62
82872;BME280;72646;43.596;1.428;2024-03-02T07:44:10;98216.38;;;17.19;42.04
82872;BME280;72646;43.596;1.428;2024-03-02T07:46:42;98204.28;;;17.20;42.44
82872;BME280;72646;43.596;1.428;2024-03-02T07:49:08;98206.75;;;17.22;41.73
82872;BME280;72646;43.596;1.428;2024-03-02T07:51:34;98216.38;;;17.24;42.18
82872;BME280;72646;43.596;1.428;2024-03-02T07:53:59;98203.69;;;17.23;41.81
82872;BME280;72646;43.596;1.428;2024-03-02T07:56:25;98197.66;;;17.21;41.74
82872;BME280;72646;43.596;1.428;2024-03-02T07:58:50;98190.22;;;17.22;41.92
82872;BME280;72646;43.596;1.428;2024-03-02T08:01:16;98191.28;;;17.26;41.66
82872;BME280;72646;43.596;1.428;2024-03-02T08:03:43;98199.56;;;17.26;41.86
82872;BME280;72646;43.596;1.428;2024-03-02T08:06:17;98194.34;;;17.19;41.86
82872;BME280;72646;43.596;1.428;2024-03-02T08:08:42;98193.75;;;17.27;42.14
82872;BME280;72646;43.596;1.428;2024-03-02T08:11:07;98177.19;;;17.32;41.64
82872;BME280;72646;43.596;1.428;2024-03-02T08:13:33;98179.69;;;17.29;41.88
82872;BME280;72646;43.596;1.428;2024-03-02T08:15:58;98191.53;;;17.34;41.63
82872;BME280;72646;43.596;1.428;2024-03-02T08:18:24;98193.44;;;17.34;41.56
82872;BME280;72646;43.596;1.428;2024-03-02T08:20:50;98199.75;;;17.39;41.79
82872;BME280;72646;43.596;1.428;2024-03-02T08:23:15;98186.81;;;17.40;41.35
82872;BME280;72646;43.596;1.428;2024-03-02T08:25:41;98185.97;;;17.39;41.76
82872;BME280;72646;43.596;1.428;2024-03-02T08:28:07;98180.47;;;17.39;41.82
82872;BME280;72646;43.596;1.428;2024-03-02T08:30:32;98184.63;;;17.37;41.86
82872;BME280;72646;43.596;1.428;2024-03-02T08:32:58;98190.41;;;17.35;41.55
82872;BME280;72646;43.596;1.428;2024-03-02T08:35:23;98180.78;;;17.33;41.77
82872;BME280;72646;43.596;1.428;2024-03-02T08:37:48;98170.03;;;17.31;41.31
82872;BME280;72646;43.596;1.428;2024-03-02T08:40:14;98189.56;;;17.35;41.65
82872;BME280;72646;43.596;1.428;2024-03-02T08:42:40;98184.34;;;17.33;41.90
82872;BME280;72646;43.596;1.428;2024-03-02T08:45:06;98173.88;;;17.35;41.68
82872;BME280;72646;43.596;1.428;2024-03-02T08:47:32;98164.47;;;17.36;41.98
82872;BME280;72646;43.596;1.428;2024-03-02T08:49:58;98148.78;;;17.32;41.47
82872;BME280;72646;43.596;1.428;2024-03-02T08:52:24;98151.25;;;17.33;41.87
82872;BME280;72646;43.596;1.428;2024-03-02T08:54:49;98141.88;;;17.34;41.67
82872;BME280;72646;43.596;1.428;2024-03-02T08:57:15;98138.00;;;17.35;41.82
82872;BME280;72646;43.596;1.428;2024-03-02T08:59:40;98131.41;;;17.31;41.88
82872;BME280;72646;43.596;1.428;2024-03-02T09:02:06;98134.16;;;17.31;42.17
82872;BME280;72646;43.596;1.428;2024-03-02T09:04:31;98122.06;;;17.27;41.83
82872;BME280;72646;43.596;1.428;2024-03-02T09:06:57;98127.53;;;17.32;42.01
82872;BME280;72646;43.596;1.428;2024-03-02T09:09:22;98120.91;;;17.33;41.75
82872;BME280;72646;43.596;1.428;2024-03-02T09:11:47;98116.22;;;17.34;42.03
82872;BME280;72646;43.596;1.428;2024-03-02T09:14:13;98122.84;;;17.33;41.96
82872;BME280;72646;43.596;1.428;2024-03-02T09:16:40;98123.66;;;17.33;42.18
82872;BME280;72646;43.596;1.428;2024-03-02T09:19:05;98118.19;;;17.28;42.53
82872;BME280;72646;43.596;1.428;2024-03-02T09:21:34;98118.69;;;17.35;42.19
82872;BME280;72646;43.596;1.428;2024-03-02T09:23:59;98111.50;;;17.39;41.85
82872;BME280;72646;43.596;1.428;2024-03-02T09:26:27;98107.66;;;17.35;42.31
82872;BME280;72646;43.596;1.428;2024-03-02T09:28:52;98099.66;;;17.34;41.89
82872;BME280;72646;43.596;1.428;2024-03-02T09:31:18;98097.75;;;17.34;42.47
82872;BME280;72646;43.596;1.428;2024-03-02T09:33:43;98093.03;;;17.40;42.26
82872;BME280;72646;43.596;1.428;2024-03-02T09:36:21;98094.94;;;17.39;42.09
82872;BME280;72646;43.596;1.428;2024-03-02T09:38:47;98073.72;;;17.35;42.50
82872;BME280;72646;43.596;1.428;2024-03-02T09:41:14;98077.31;;;17.41;42.22
82872;BME280;72646;43.596;1.428;2024-03-02T09:43:40;98060.50;;;17.42;42.24
82872;BME280;72646;43.596;1.428;2024-03-02T09:46:09;98066.56;;;17.39;42.00
82872;BME280;72646;43.596;1.428;2024-03-02T09:48:35;98058.56;;;17.38;42.40
82872;BME280;72646;43.596;1.428;2024-03-02T09:51:00;98047.03;;;17.30;42.35
82872;BME280;72646;43.596;1.428;2024-03-02T09:53:28;98048.34;;;17.38;42.10
82872;BME280;72646;43.596;1.428;2024-03-02T09:55:56;98047.53;;;17.38;42.61
82872;BME280;72646;43.596;1.428;2024-03-02T09:58:21;98053.56;;;17.39;42.29
82872;BME280;72646;43.596;1.428;2024-03-02T10:00:46;98044.00;;;17.32;42.81
82872;BME280;72646;43.596;1.428;2024-03-02T10:03:13;98045.56;;;17.38;42.22
82872;BME280;72646;43.596;1.428;2024-03-02T10:05:38;98045.06;;;17.36;42.37
82872;BME280;72646;43.596;1.428;2024-03-02T10:08:04;98044.78;;;17.38;42.77
82872;BME280;72646;43.596;1.428;2024-03-02T10:10:36;98048.34;;;17.38;42.58
82872;BME280;72646;43.596;1.428;2024-03-02T10:13:06;98050.56;;;17.36;42.67
82872;BME280;72646;43.596;1.428;2024-03-02T10:15:32;98046.75;;;17.32;42.61
82872;BME280;72646;43.596;1.428;2024-03-02T10:17:57;98047.53;;;17.38;43.02
82872;BME280;72646;43.596;1.428;2024-03-02T10:20:26;98027.69;;;17.35;42.67
82872;BME280;72646;43.596;1.428;2024-03-02T10:22:54;98016.34;;;17.37;43.12
82872;BME280;72646;43.596;1.428;2024-03-02T10:25:30;98005.59;;;17.35;42.86
82872;BME280;72646;43.596;1.428;2024-03-02T10:27:57;97998.75;;;17.33;43.01
82872;BME280;72646;43.596;1.428;2024-03-02T10:30:23;98007.25;;;17.36;43.21
82872;BME280;72646;43.596;1.428;2024-03-02T10:32:49;97992.38;;;17.38;42.98
82872;BME280;72646;43.596;1.428;2024-03-02T10:35:16;97980.78;;;17.35;42.95
82872;BME280;72646;43.596;1.428;2024-03-02T10:37:41;97968.97;;;17.30;42.86
82872;BME280;72646;43.596;1.428;2024-03-02T10:40:10;97976.09;;;17.36;43.39
82872;BME280;72646;43.596;1.428;2024-03-02T10:42:37;97962.88;;;17.33;43.20
82872;BME280;72646;43.596;1.428;2024-03-02T10:45:04;97970.81;;;17.39;43.09
82872;BME280;72646;43.596;1.428;2024-03-02T10:47:31;97953.50;;;17.34;43.14
82872;BME280;72646;43.596;1.428;2024-03-02T10:49:59;97953.75;;;17.38;43.29
82872;BME280;72646;43.596;1.428;2024-03-02T10:52:26;97945.75;;;17.36;43.66
82872;BME280;72646;43.596;1.428;2024-03-02T10:54:52;97943.81;;;17.36;43.69
82872;BME280;72646;43.596;1.428;2024-03-02T10:57:21;97936.66;;;17.35;43.22
82872;BME280;72646;43.596;1.428;2024-03-02T10:59:56;97941.88;;;17.37;43.71
82872;BME280;72646;43.596;1.428;2024-03-02T11:02:26;97936.09;;;17.38;43.66
82872;BME280;72646;43.596;1.428;2024-03-02T11:04:55;97934.16;;;17.39;43.76
82872;BME280;72646;43.596;1.428;2024-03-02T11:07:21;97921.44;;;17.38;43.72
82872;BME280;72646;43.596;1.428;2024-03-02T11:09:56;97922.00;;;17.40;44.07
82872;BME280;72646;43.596;1.428;2024-03-02T11:12:36;97929.72;;;17.38;43.66
82872;BME280;72646;43.596;1.428;2024-03-02T11:15:07;97922.56;;;17.42;43.73
82872;BME280;72646;43.596;1.428;2024-03-02T11:17:35;97925.59;;;17.41;44.29
82872;BME280;72646;43.596;1.428;2024-03-02T11:20:03;97912.59;;;17.41;44.14
82872;BME280;72646;43.596;1.428;2024-03-02T11:22:29;97913.44;;;17.42;44.05
82872;BME280;72646;43.596;1.428;2024-03-02T11:24:55;97901.03;;;17.44;44.27
82872;BME280;72646;43.596;1.428;2024-03-02T11:33:03;97875.63;;;17.47;44.09
82872;BME280;72646;43.596;1.428;2024-03-02T11:35:41;97866.28;;;17.43;44.12
82872;BME280;72646;43.596;1.428;2024-03-02T11:38:14;97861.59;;;17.38;44.28
82872;BME280;72646;43.596;1.428;2024-03-02T11:40:40;97852.78;;;17.36;44.00
82872;BME280;72646;43.596;1.428;2024-03-02T11:43:06;97858.81;;;17.44;44.35
82872;BME280;72646;43.596;1.428;2024-03-02T11:45:33;97860.19;;;17.46;44.30
82872;BME280;72646;43.596;1.428;2024-03-02T11:47:59;97855.47;;;17.47;44.00
82872;BME280;72646;43.596;1.428;2024-03-02T11:50:34;97845.34;;;17.42;44.21
82872;BME280;72646;43.596;1.428;2024-03-02T11:53:01;97848.38;;;17.41;44.34
82872;BME280;72646;43.596;1.428;2024-03-02T11:55:28;97844.22;;;17.38;44.39
82872;BME280;72646;43.596;1.428;2024-03-02T11:57:55;97849.44;;;17.45;44.22
82872;BME280;72646;43.596;1.428;2024-03-02T12:00:21;97840.63;;;17.43;44.13
82872;BME280;72646;43.596;1.428;2024-03-02T12:03:07;97840.88;;;17.46;44.22
82872;BME280;72646;43.596;1.428;2024-03-02T12:05:34;97827.38;;;17.45;44.32
82872;BME280;72646;43.596;1.428;2024-03-02T12:08:04;97823.50;;;17.46;44.52
82872;BME280;72646;43.596;1.428;2024-03-02T12:10:31;97810.84;;;17.45;44.16
82872;BME280;72646;43.596;1.428;2024-03-02T12:12:59;97814.66;;;17.49;44.19
82872;BME280;72646;43.596;1.428;2024-03-02T12:15:26;97804.72;;;17.48;44.45
82872;BME280;72646;43.596;1.428;2024-03-02T12:17:57;97782.13;;;17.46;44.18
82872;BME280;72646;43.596;1.428;2024-03-02T12:20:24;97768.91;;;17.43;44.51
82872;BME280;72646;43.596;1.428;2024-03-02T12:22:54;97786.75;;;17.50;44.43
82872;BME280;72646;43.596;1.428;2024-03-02T12:25:20;97771.34;;;17.49;44.17
82872;BME280;72646;43.596;1.428;2024-03-02T12:27:46;97769.63;;;17.53;44.59
82872;BME280;72646;43.596;1.428;2024-03-02T12:30:13;97758.88;;;17.52;44.61
82872;BME280;72646;43.596;1.428;2024-03-02T12:32:40;97747.84;;;17.52;44.68
82872;BME280;72646;43.596;1.428;2024-03-02T12:35:06;97753.38;;;17.52;44.73
82872;BME280;72646;43.596;1.428;2024-03-02T12:37:31;97750.03;;;17.55;44.47
82872;BME280;72646;43.596;1.428;2024-03-02T12:39:57;97748.34;;;17.54;44.58
82872;BME280;72646;43.596;1.428;2024-03-02T12:42:24;97730.75;;;17.50;44.37
82872;BME280;72646;43.596;1.428;2024-03-02T12:44:52;97731.81;;;17.54;44.57
82872;BME280;72646;43.596;1.428;2024-03-02T12:47:19;97724.38;;;17.54;44.45
82872;BME280;72646;43.596;1.428;2024-03-02T12:49:45;97729.06;;;17.54;44.75
82872;BME280;72646;43.596;1.428;2024-03-02T12:52:12;97729.38;;;17.52;44.67
82872;BME280;72646;43.596;1.428;2024-03-02T12:54:38;97718.00;;;17.54;45.02
82872;BME280;72646;43.596;1.428;2024-03-02T12:57:03;97711.41;;;17.55;44.54
82872;BME280;72646;43.596;1.428;2024-03-02T12:59:29;97705.59;;;17.56;44.54
82872;BME280;72646;43.596;1.428;2024-03-02T13:01:56;97698.41;;;17.55;44.47
82872;BME280;72646;43.596;1.428;2024-03-02T13:04:27;97701.72;;;17.57;44.69